• Join FlightAware (Why Join?)
  • Login
  • US Flag 
06:03PM EDT


 

Airport Tracker/Info


-or-


 

Live Flight TrackerFlight Track Log ✈ ASQ5678 ✈ 05-Jul-2014 ✈ KORD - CYOW

Flight Track Log - Related Links

Times and Time Zones

All times are in EDT time to prevent confusion due to time zone crossing. See the ASQ5678 flight status page for this flight to view local times or setup timezone preferences in your user account.

Time Position Orientation Groundspeed Altitude Reporting Facility
EDT Latitude Longitude Course Direction KTS MPH feet Rate Location/Type
02:46PM 41.9833 -87.9500 77° East 183 211 2,200  Level Chicago TRACON
02:47PM 42.0333 -87.9500 360° North 245 282 3,900 1,680 Climbing Chicago TRACON
02:48PM 42.0728 -87.9153 33° Northeast 267 307 4,900 1,680 Climbing Chicago Center
02:49PM 42.1319 -87.8558 37° Northeast 267 307 6,600 1,800 Climbing Chicago Center
02:50PM 42.2098 -87.2373 66° East  Level FlightAware Approximate
02:50PM 42.1881 -87.7800 45° Northeast 291 335 8,600  Level Chicago Center
02:51PM 42.2581 -87.1008 71° East  Level FlightAware Approximate
02:51PM 42.1956 -87.6564 85° East 308 354 10,800  Level Chicago Center
02:52PM 42.2801 -86.9530 77° East  Level FlightAware Approximate
02:52PM 42.2119 -87.5364 80° East 322 371 12,600  Level Chicago Center
02:53PM 42.2306 -87.4097 79° East 345 397 13,700 1,260 Climbing Chicago Center
02:54PM 42.2508 -87.2633 79° East 365 420 15,300 1,320 Climbing Chicago Center
02:55PM 42.2714 -87.1247 79° East 377 434 16,500 1,140 Climbing Chicago Center
02:56PM 42.2822 -86.9744 84° East 384 442 17,700 900 Climbing Chicago Center
02:57PM 42.2875 -86.8250 87° East 396 456 18,400 780 Climbing Chicago Center
02:58PM 42.2936 -86.6836 87° East 402 463 19,400 960 Climbing Chicago Center
02:59PM 42.3019 -86.5028 86° East 418 481 20,500 1,020 Climbing Chicago Center
03:00PM 42.3067 -86.3428 88° East 426 490 21,500 900 Climbing Chicago Center
03:01PM 42.3125 -86.1831 87° East 428 493 22,400 900 Climbing Chicago Center
03:02PM 42.3139 -86.0211 89° East 430 495 23,400 1,020 Climbing Chicago Center
03:03PM 42.3122 -85.8572 91° East 436 502 24,600 1,080 Climbing Chicago Center
03:04PM 42.3100 -85.6964 91° East 436 502 25,700 1,200 Climbing Chicago Center
03:05PM 42.3078 -85.5047 91° East 433 498 27,100 1,260 Climbing Chicago Center
03:06PM 42.3056 -85.3464 91° East 429 494 28,300 1,080 Climbing Chicago Center
03:07PM 42.3025 -85.1881 91° East 428 493 29,400 1,080 Climbing Chicago Center
03:08PM 42.2997 -85.0300 91° East 427 491 30,600 1,140 Climbing Chicago Center
03:09PM 42.2969 -84.8708 91° East 426 490 31,800 1,080 Climbing Chicago Center
03:10PM 42.3244 -84.7164 76° East 429 494 32,900 660 Climbing Chicago Center
03:11PM 42.3461 -84.6164 74° East 426 490 33,000 540 Climbing Cleveland Center
03:12PM 42.3883 -84.4214 74° East 446 513 33,900 840 Climbing Cleveland Center
03:13PM 42.4233 -84.2581 74° East 450 518 34,800 480 Climbing Cleveland Center
03:14PM 42.4578 -84.0933 74° East 451 519 35,000 60 Climbing Cleveland Center
03:15PM 42.4944 -83.9208 74° East 470 541 35,000  Level Cleveland Center
03:16PM 42.5311 -83.7456 74° East 476 548 35,000  Level Cleveland Center
03:17PM 42.5672 -83.5739 74° East 471 542 35,000  Level Cleveland Center
03:18PM 42.6022 -83.4031 74° East 466 536 35,000  Level Cleveland Center
03:19PM 42.6369 -83.2300 75° East 468 539 35,000  Level Cleveland Center
03:20PM 42.6728 -83.0542 74° East 477 549 35,000  Level Cleveland Center
03:21PM 42.7081 -82.8806 74° East 477 549 35,000  Level Cleveland Center
03:22PM 42.7483 -82.6739 75° East 475 547 35,000  Level Cleveland Center
03:23PM 42.7822 -82.5008 75° East 473 544 35,000  Level Cleveland Center
03:24PM 42.8167 -82.3236 75° East 482 555 35,000  Level Cleveland Center
03:25PM 42.8511 -82.1458 75° East 484 557 35,000  Level Cleveland Center
03:27PM 42.9167 -81.8000 75° East 480 552 35,000  Level Toronto Center
03:28PM 42.9333 -81.6167 83° East 480 552 35,000  Level Toronto Center
03:29PM 42.9667 -81.4333 76° East 490 564 35,000  Level Toronto Center
03:30PM 43.0000 -81.2500 76° East 490 564 35,000  Level Toronto Center
03:31PM 43.0500 -81.0667 69° East 480 552 35,000  Level Toronto Center
03:32PM 43.1000 -80.9333 63° Northeast 470 541 35,000  Level Toronto Center
03:33PM 43.1833 -80.7833 53° Northeast 460 529 35,000  Level Toronto Center
03:34PM 43.2500 -80.6167 61° Northeast 460 529 35,000  Level Toronto Center
03:35PM 43.3000 -80.4833 63° Northeast 450 518 35,000  Level Toronto Center
03:36PM 43.3667 -80.3167 61° Northeast 460 529 35,000  Level Toronto Center
03:37PM 43.4333 -80.1667 58° Northeast 470 541 35,000  Level Toronto Center
03:38PM 43.5000 -80.0000 61° Northeast 460 529 35,000  Level Toronto Center
03:39PM 43.5500 -79.8667 63° Northeast 460 529 35,000  Level Toronto Center
03:40PM 43.6167 -79.7000 61° Northeast 450 518 35,000  Level Toronto Center
03:41PM 43.6667 -79.5333 67° East 460 529 35,000  Level Toronto Center
03:42PM 43.7167 -79.3833 65° Northeast 460 529 35,000  Level Toronto Center
03:43PM 43.7667 -79.2167 67° East 450 518 35,000  Level Toronto Center
03:44PM 43.8167 -79.0500 67° East 460 529 35,000  Level Toronto Center
03:45PM 43.8667 -78.9000 65° Northeast 470 541 35,000  Level Toronto Center
03:47PM 43.9500 -78.5667 71° East 460 529 35,000  Level Montreal Center
03:48PM 43.9833 -78.3833 76° East 460 529 35,000  Level Toronto Center
03:49PM 44.0500 -78.2333 58° Northeast 450 518 35,000  Level Toronto Center
03:50PM 44.1000 -78.0833 65° Northeast 450 518 35,000  Level Toronto Center
03:51PM 44.1667 -77.9333 58° Northeast 450 518 35,000  Level Toronto Center
03:52PM 44.2333 -77.8000 55° Northeast 440 506 35,000  Level Toronto Center
03:53PM 44.3167 -77.6500 52° Northeast 440 506 35,000 -960 Level Toronto Center
03:54PM 44.3833 -77.5167 55° Northeast 440 506 33,100 -2,520 Descending Toronto Center
03:55PM 44.4333 -77.3667 65° Northeast 430 495 30,000 -3,000 Descending Toronto Center
03:56PM 44.5000 -77.2167 58° Northeast 450 518 27,200 -2,820 Descending Toronto Center
03:57PM 44.5833 -77.0667 52° Northeast 450 518 23,900 -2,760 Descending Montreal Center
03:58PM 44.6500 -76.9333 55° Northeast 450 518 21,300 -2,520 Descending Montreal Center
03:59PM 44.7167 -76.8000 55° Northeast 430 495 18,900 -2,100 Descending Montreal Center
04:00PM 44.7833 -76.6833 51° Northeast 410 472 17,100 -1,740 Descending Montreal Center
04:01PM 44.8500 -76.5333 58° Northeast 400 460 15,500 -1,500 Descending Montreal Center
04:02PM 44.9167 -76.4167 51° Northeast 390 449 14,100 -1,500 Descending Montreal Center
04:03PM 44.9833 -76.2833 55° Northeast 390 449 12,500 -1,440 Descending Montreal Center
04:04PM 45.0500 -76.1833 47° Northeast 350 403 11,300 -1,320 Descending Montreal Center
04:05PM 45.1000 -76.0833 55° Northeast 310 357 9,900 -1,500 Descending Montreal Center
04:06PM 45.1500 -76.0000 50° Northeast 290 334 8,400 -1,380 Descending Montreal Center
04:07PM 45.1833 -75.9000 65° Northeast 270 311 7,200 -480 Descending Montreal Center
04:09PM 45.2000 -75.6833 84° East 270 311 7,000 -540 Descending Montreal Center
04:10PM 45.2333 -75.5833 65° Northeast 260 299 5,600 -1,380 Descending Montreal Center
04:11PM 45.2833 -75.5167 43° Northeast 250 288 4,300 -1,320 Descending Montreal Center
04:12PM 45.3333 -75.4500 43° Northeast 230 265 3,000 -900 Descending Montreal Center
04:13PM 45.3667 -75.4833 325° Northwest 160 184 2,500 -600 Descending Montreal Center
04:14PM 45.3500 -75.5333 245° Southwest 160 184 1,900 -660 Descending Montreal Center
04:15PM 45.3333 -75.5833 245° Southwest 130 150 1,200 -660 Descending Montreal Center
04:16PM 45.3167 -75.6333 245° Southwest 130 150 600 -600 Descending Montreal Center